createdAt,value
2023-05-05T00:00:33.060Z,50.89
2023-05-05T00:03:35.955Z,49.84
2023-05-05T00:06:38.430Z,50.44
2023-05-05T00:09:41.518Z,50.90
2023-05-05T00:12:43.943Z,50.86
2023-05-05T00:15:48.922Z,51.88
2023-05-05T00:18:51.444Z,50.23
2023-05-05T00:21:54.036Z,50.85
2023-05-05T00:24:56.339Z,51.30
2023-05-05T00:27:59.033Z,50.95
2023-05-05T00:31:01.808Z,50.73
2023-05-05T00:34:04.611Z,50.41
2023-05-05T00:37:07.328Z,50.85
2023-05-05T00:40:12.724Z,50.57
2023-05-05T00:43:15.437Z,50.73
2023-05-05T00:46:26.571Z,50.89
2023-05-05T00:49:29.748Z,51.74
2023-05-05T00:52:32.601Z,51.84
2023-05-05T00:55:35.372Z,52.06
2023-05-05T00:58:39.523Z,51.08
2023-05-05T01:01:41.802Z,52.33
2023-05-05T01:04:44.366Z,51.77
2023-05-05T01:08:02.991Z,53.12
2023-05-05T01:11:24.668Z,52.46
2023-05-05T01:15:01.357Z,52.14
2023-05-05T01:18:19.593Z,51.22
2023-05-05T01:21:23.398Z,52.18
2023-05-05T01:24:54.645Z,51.42
2023-05-05T01:28:29.474Z,52.87
2023-05-05T01:31:43.958Z,53.10
2023-05-05T01:35:02.175Z,51.54
2023-05-05T01:38:11.931Z,53.24
2023-05-05T01:41:19.937Z,53.28
2023-05-05T01:44:22.862Z,52.58
2023-05-05T01:47:26.278Z,52.74
2023-05-05T01:50:29.383Z,53.04
2023-05-05T01:53:33.319Z,52.87
2023-05-05T01:56:40.259Z,53.51
2023-05-05T01:59:43.514Z,53.60
2023-05-05T02:02:49.376Z,52.64
2023-05-05T02:05:53.968Z,53.91
2023-05-05T02:08:58.374Z,53.85
2023-05-05T02:12:02.362Z,54.21
2023-05-05T02:15:05.406Z,53.26
2023-05-05T02:18:09.497Z,53.15
2023-05-05T02:21:11.791Z,54.15
2023-05-05T02:24:14.328Z,52.59
2023-05-05T02:27:20.504Z,53.80
2023-05-05T02:30:25.174Z,53.10
2023-05-05T02:33:32.976Z,53.91
2023-05-05T02:36:39.553Z,53.42
2023-05-05T02:39:58.413Z,53.85
2023-05-05T02:43:06.533Z,53.95
2023-05-05T02:46:09.416Z,54.21
2023-05-05T02:49:12.655Z,54.77
2023-05-05T02:52:15.458Z,54.37
2023-05-05T02:55:18.827Z,56.05
2023-05-05T02:58:29.815Z,54.44
2023-05-05T03:02:11.655Z,55.32
2023-05-05T03:05:21.258Z,55.24
2023-05-05T03:08:42.785Z,56.09
2023-05-05T03:11:54.765Z,56.24
2023-05-05T03:14:59.030Z,56.77
2023-05-05T03:18:04.466Z,54.31
2023-05-05T03:21:08.922Z,54.15
2023-05-05T03:24:16.185Z,54.29
2023-05-05T03:27:20.489Z,54.65
2023-05-05T03:30:22.885Z,55.07
2023-05-05T03:33:26.351Z,56.65
2023-05-05T03:36:30.680Z,56.80
2023-05-05T03:39:33.610Z,57.82
2023-05-05T03:42:36.192Z,56.37
2023-05-05T03:45:39.179Z,56.56
2023-05-05T03:48:42.197Z,56.79
2023-05-05T03:51:44.972Z,57.06
2023-05-05T03:54:47.414Z,57.13
2023-05-05T03:57:50.081Z,57.11
2023-05-05T04:00:52.616Z,57.15
2023-05-05T04:03:56.448Z,58.61
2023-05-05T04:06:58.894Z,57.43
2023-05-05T04:10:01.684Z,57.69
2023-05-05T04:13:04.303Z,58.01
2023-05-05T04:16:08.819Z,58.58
2023-05-05T04:19:13.155Z,59.51
2023-05-05T04:22:16.119Z,58.37
2023-05-05T04:25:18.701Z,58.28
2023-05-05T04:28:22.235Z,58.37
2023-05-05T04:31:24.846Z,58.45
2023-05-05T04:34:27.557Z,58.21
2023-05-05T04:37:30.271Z,58.68
2023-05-05T04:40:33.302Z,57.92
2023-05-05T04:43:35.877Z,57.93
2023-05-05T04:46:38.525Z,57.81
2023-05-05T04:49:41.030Z,57.73
2023-05-05T04:52:43.748Z,57.74
2023-05-05T04:55:46.124Z,57.96
2023-05-05T04:58:50.124Z,58.01
2023-05-05T05:01:52.661Z,57.52
2023-05-05T05:04:55.265Z,57.27
2023-05-05T05:07:57.984Z,57.14
2023-05-05T05:11:00.802Z,57.20
2023-05-05T05:14:03.164Z,57.29
2023-05-05T05:17:08.775Z,57.20
2023-05-05T05:20:11.650Z,57.03
2023-05-05T05:23:17.017Z,56.71
2023-05-05T05:26:19.556Z,56.52
2023-05-05T05:29:22.742Z,57.11
2023-05-05T05:32:25.119Z,56.54
2023-05-05T05:35:28.084Z,57.22
2023-05-05T05:38:30.415Z,56.70
2023-05-05T05:41:33.507Z,57.33
2023-05-05T05:44:35.849Z,56.71
2023-05-05T05:47:38.608Z,56.88
2023-05-05T05:50:41.028Z,55.80
2023-05-05T05:53:44.405Z,55.83
2023-05-05T05:56:46.913Z,55.18
2023-05-05T05:59:49.722Z,54.81
2023-05-05T06:02:52.473Z,54.72
2023-05-05T06:05:56.805Z,54.77
2023-05-05T06:08:59.604Z,54.56
2023-05-05T06:12:03.767Z,54.10
2023-05-05T06:15:07.108Z,53.56
2023-05-05T06:18:09.950Z,52.60
2023-05-05T06:21:13.368Z,53.99
2023-05-05T06:24:16.381Z,53.39
2023-05-05T06:27:18.734Z,52.26
2023-05-05T06:30:21.604Z,52.17
2023-05-05T06:33:23.891Z,51.19
2023-05-05T06:36:26.485Z,51.92
2023-05-05T06:39:28.859Z,50.68
2023-05-05T06:42:32.229Z,50.29
2023-05-05T06:45:34.827Z,50.21
2023-05-05T06:48:37.546Z,50.27
2023-05-05T06:51:42.158Z,49.87
2023-05-05T06:54:45.599Z,50.39
2023-05-05T06:57:47.932Z,49.36
2023-05-05T07:00:50.609Z,48.68
2023-05-05T07:03:53.268Z,49.59
2023-05-05T07:06:56.640Z,48.74
2023-05-05T07:09:59.000Z,48.56
2023-05-05T07:13:01.819Z,48.00
2023-05-05T07:16:04.842Z,48.57
2023-05-05T07:19:10.090Z,47.93
2023-05-05T07:22:12.525Z,46.91
2023-05-05T07:25:15.144Z,48.48
2023-05-05T07:28:18.032Z,48.08
2023-05-05T07:31:22.042Z,45.91
2023-05-05T07:34:24.479Z,47.35
2023-05-05T07:37:27.132Z,47.14
2023-05-05T07:40:35.471Z,46.71
2023-05-05T07:43:39.611Z,45.59
2023-05-05T07:46:42.116Z,45.06
2023-05-05T07:49:44.765Z,45.46
2023-05-05T07:52:51.886Z,44.98
2023-05-05T07:56:02.000Z,45.57
2023-05-05T07:59:22.774Z,44.23
2023-05-05T08:02:25.671Z,45.75
2023-05-05T08:05:28.333Z,44.67
2023-05-05T08:08:30.650Z,44.42
2023-05-05T08:11:33.279Z,44.25
2023-05-05T08:14:36.333Z,44.75
2023-05-05T08:17:50.604Z,42.55
2023-05-05T08:20:53.525Z,44.83
2023-05-05T08:23:56.208Z,40.89
2023-05-05T08:27:01.653Z,40.79
2023-05-05T08:30:04.813Z,41.82
2023-05-05T08:33:07.227Z,41.30
2023-05-05T08:36:09.994Z,39.21
2023-05-05T08:39:14.944Z,38.17
2023-05-05T08:42:32.816Z,38.22
2023-05-05T08:45:42.173Z,38.05
2023-05-05T08:48:46.038Z,37.91
2023-05-05T08:51:48.889Z,39.01
2023-05-05T08:54:57.269Z,39.22
2023-05-05T08:58:06.198Z,39.58
2023-05-05T09:01:10.305Z,37.71
2023-05-05T09:04:13.900Z,36.79
2023-05-05T09:07:16.767Z,37.81
2023-05-05T09:10:23.165Z,37.51
2023-05-05T09:13:30.397Z,35.51
2023-05-05T09:16:35.171Z,33.95
2023-05-05T09:20:14.227Z,33.21
2023-05-05T09:23:19.733Z,31.91
2023-05-05T09:26:26.083Z,31.42
2023-05-05T09:29:28.975Z,31.89
2023-05-05T09:32:45.939Z,31.48
2023-05-05T09:35:56.120Z,30.51
2023-05-05T09:39:06.257Z,32.35
2023-05-05T09:42:18.851Z,30.92
2023-05-05T09:45:27.482Z,31.01
2023-05-05T09:48:32.395Z,30.35
2023-05-05T09:51:37.438Z,30.00
2023-05-05T09:54:44.630Z,29.61
2023-05-05T09:57:47.641Z,30.73
2023-05-05T10:00:51.152Z,31.23
2023-05-05T10:03:55.225Z,29.57
2023-05-05T10:07:03.467Z,30.38
2023-05-05T10:10:08.346Z,28.94
2023-05-05T10:13:12.049Z,30.17
2023-05-05T10:16:15.457Z,28.25
2023-05-05T10:19:24.828Z,28.04
2023-05-05T10:22:32.849Z,28.00
2023-05-05T10:25:42.167Z,28.32
2023-05-05T10:28:50.958Z,27.07
2023-05-05T10:31:54.449Z,26.81
2023-05-05T10:35:04.030Z,27.91
2023-05-05T10:38:12.095Z,27.09
2023-05-05T10:41:16.123Z,27.04
2023-05-05T10:44:19.439Z,28.00
2023-05-05T10:47:24.029Z,27.87
2023-05-05T10:50:41.729Z,29.41
2023-05-05T10:54:06.141Z,29.78
2023-05-05T10:57:10.904Z,30.28
2023-05-05T11:00:39.669Z,31.26
2023-05-05T11:03:42.411Z,29.81
2023-05-05T11:07:13.465Z,30.91
2023-05-05T11:10:20.662Z,31.46
2023-05-05T11:13:23.827Z,29.79
2023-05-05T11:16:52.876Z,30.35
2023-05-05T11:19:55.767Z,29.65
2023-05-05T11:23:04.195Z,29.68
2023-05-05T11:26:07.349Z,29.50
2023-05-05T11:29:09.845Z,30.18
2023-05-05T11:32:14.366Z,29.86
2023-05-05T11:35:16.923Z,28.83
2023-05-05T11:38:24.559Z,29.27
2023-05-05T11:41:32.701Z,28.83
2023-05-05T11:44:46.157Z,28.12
2023-05-05T11:47:48.781Z,28.88
2023-05-05T11:50:54.862Z,29.14
2023-05-05T11:53:59.156Z,27.83
2023-05-05T11:57:05.631Z,29.50
2023-05-05T12:00:11.953Z,29.09
2023-05-05T12:03:15.221Z,29.38
2023-05-05T12:06:28.553Z,27.82
2023-05-05T12:09:31.767Z,27.31
2023-05-05T12:12:38.531Z,27.86
2023-05-05T12:15:43.653Z,27.85
2023-05-05T12:18:48.177Z,27.65
2023-05-05T12:21:56.089Z,28.04
2023-05-05T12:25:01.580Z,29.35
2023-05-05T12:28:14.571Z,28.92
2023-05-05T12:31:19.640Z,28.49
2023-05-05T12:34:27.212Z,29.11
2023-05-05T12:37:31.538Z,28.61
2023-05-05T12:40:53.890Z,28.55
2023-05-05T12:43:57.468Z,31.81
2023-05-05T12:47:00.545Z,29.10
2023-05-05T12:50:03.268Z,28.63
2023-05-05T12:53:07.139Z,28.92
2023-05-05T12:56:32.187Z,29.92
2023-05-05T12:59:34.842Z,30.45
2023-05-05T13:02:37.231Z,30.59
2023-05-05T13:05:41.187Z,31.22
2023-05-05T13:08:43.856Z,29.56
2023-05-05T13:11:46.517Z,29.77
2023-05-05T13:14:48.925Z,28.98
2023-05-05T13:17:58.260Z,30.73
2023-05-05T13:21:00.754Z,29.30
2023-05-05T13:27:09.220Z,31.01
2023-05-05T13:30:12.590Z,31.75
2023-05-05T13:33:14.962Z,31.71
2023-05-05T13:36:17.608Z,32.35
2023-05-05T13:39:20.034Z,32.61
2023-05-05T13:42:22.654Z,31.94
2023-05-05T13:45:25.140Z,33.28
2023-05-05T13:48:27.832Z,31.26
2023-05-05T13:51:30.220Z,33.28
2023-05-05T13:54:33.277Z,32.54
2023-05-05T13:57:35.724Z,33.84
2023-05-05T14:00:38.746Z,33.78
2023-05-05T14:03:41.469Z,49.23
2023-05-05T14:06:43.871Z,54.36
2023-05-05T14:09:46.563Z,55.13
2023-05-05T14:12:49.019Z,56.36
2023-05-05T14:15:52.805Z,48.40
2023-05-05T14:18:55.090Z,47.78
2023-05-05T14:21:57.678Z,50.88
2023-05-05T14:25:00.054Z,50.52
2023-05-05T14:28:03.772Z,46.62
2023-05-05T14:31:06.564Z,45.96
2023-05-05T14:34:09.329Z,44.09
2023-05-05T14:37:11.907Z,44.83
2023-05-05T14:40:14.618Z,40.03
2023-05-05T14:43:17.098Z,38.98
2023-05-05T14:46:19.938Z,38.83
2023-05-05T14:49:22.379Z,38.82
2023-05-05T14:52:25.018Z,36.35
2023-05-05T14:55:27.616Z,36.00
2023-05-05T14:58:31.188Z,35.46
2023-05-05T15:01:33.607Z,35.81
2023-05-05T15:04:36.343Z,34.22
2023-05-05T15:07:40.054Z,33.64
2023-05-05T15:10:42.757Z,35.96
2023-05-05T15:13:45.196Z,34.45
2023-05-05T15:16:47.868Z,33.93
2023-05-05T15:19:50.314Z,33.95
2023-05-05T15:22:52.968Z,33.56
2023-05-05T15:25:55.376Z,34.61
2023-05-05T15:28:58.023Z,33.21
2023-05-05T15:32:00.615Z,34.08
2023-05-05T15:35:03.376Z,33.75
2023-05-05T15:38:05.831Z,33.26
2023-05-05T15:41:08.641Z,33.05
2023-05-05T15:44:14.220Z,33.88
2023-05-05T15:47:17.782Z,33.39
2023-05-05T15:50:20.335Z,33.95
2023-05-05T15:53:23.152Z,33.16
2023-05-05T15:56:27.374Z,33.64
2023-05-05T15:59:30.151Z,33.91
2023-05-05T16:02:32.673Z,35.07
2023-05-05T16:05:35.588Z,34.77
2023-05-05T16:08:38.362Z,34.54
2023-05-05T16:11:41.021Z,34.16
2023-05-05T16:14:43.355Z,34.14
2023-05-05T16:17:46.093Z,34.05
2023-05-05T16:20:48.562Z,34.58
2023-05-05T16:23:51.453Z,35.65
2023-05-05T16:26:53.879Z,35.81
2023-05-05T16:29:58.509Z,34.74
2023-05-05T16:33:02.170Z,34.25
2023-05-05T16:36:05.411Z,35.42
2023-05-05T16:39:07.893Z,34.52
2023-05-05T16:42:10.913Z,35.29
2023-05-05T16:45:13.386Z,35.46
2023-05-05T16:48:18.617Z,35.30
2023-05-05T16:51:21.079Z,35.24
2023-05-05T16:54:23.765Z,35.46
2023-05-05T16:57:26.178Z,36.82
2023-05-05T17:00:29.114Z,35.95
2023-05-05T17:03:32.173Z,36.72
2023-05-05T17:06:34.992Z,35.80
2023-05-05T17:09:37.835Z,35.91
2023-05-05T17:12:42.053Z,35.62
2023-05-05T17:15:44.560Z,36.13
2023-05-05T17:18:47.351Z,35.76
2023-05-05T17:21:54.201Z,35.42
2023-05-05T17:24:57.112Z,35.30
2023-05-05T17:28:00.585Z,35.16
2023-05-05T17:31:03.378Z,35.92
2023-05-05T17:34:19.328Z,35.42
2023-05-05T17:37:22.171Z,36.18
2023-05-05T17:40:24.708Z,36.68
2023-05-05T17:43:27.518Z,36.05
2023-05-05T17:46:31.790Z,36.50
2023-05-05T17:49:34.967Z,36.18
2023-05-05T17:52:37.398Z,35.90
2023-05-05T17:55:44.793Z,36.09
2023-05-05T17:58:49.446Z,36.16
2023-05-05T18:01:52.188Z,36.64
2023-05-05T18:04:55.013Z,36.03
2023-05-05T18:07:57.521Z,36.08
2023-05-05T18:11:00.413Z,36.16
2023-05-05T18:14:02.923Z,36.45
2023-05-05T18:17:05.858Z,37.09
2023-05-05T18:20:08.996Z,36.59
2023-05-05T18:23:11.730Z,37.18
2023-05-05T18:26:16.562Z,36.46
2023-05-05T18:29:22.506Z,37.00
2023-05-05T18:32:26.839Z,37.10
2023-05-05T18:35:32.492Z,37.38
2023-05-05T18:38:37.544Z,39.31
2023-05-05T18:41:54.558Z,38.09
2023-05-05T18:45:46.150Z,38.41
2023-05-05T18:49:31.138Z,38.86
2023-05-05T18:52:49.657Z,40.01
2023-05-05T18:56:01.446Z,39.59
2023-05-05T18:59:19.633Z,40.15
2023-05-05T19:02:43.090Z,40.59
2023-05-05T19:05:47.440Z,40.88
2023-05-05T19:08:50.241Z,41.52
2023-05-05T19:11:54.121Z,41.96
2023-05-05T19:14:59.098Z,43.21
2023-05-05T19:18:02.709Z,42.93
2023-05-05T19:21:11.226Z,43.30
2023-05-05T19:24:15.346Z,43.07
2023-05-05T19:27:18.027Z,44.35
2023-05-05T19:30:21.966Z,47.61
2023-05-05T19:33:24.174Z,45.75
2023-05-05T19:36:27.757Z,47.40
2023-05-05T19:39:30.224Z,48.66
2023-05-05T19:42:32.908Z,48.93
2023-05-05T19:45:35.589Z,46.16
2023-05-05T19:48:38.292Z,47.63
2023-05-05T19:51:42.031Z,49.57
2023-05-05T19:54:44.716Z,50.40
2023-05-05T19:57:47.209Z,49.91
2023-05-05T20:00:49.865Z,50.26
2023-05-05T20:03:55.797Z,50.38
2023-05-05T20:06:58.302Z,49.87
2023-05-05T20:10:01.056Z,49.52
2023-05-05T20:13:03.560Z,50.60
2023-05-05T20:16:07.522Z,50.73
2023-05-05T20:19:10.045Z,51.05
2023-05-05T20:22:12.763Z,50.38
2023-05-05T20:25:18.537Z,51.35
2023-05-05T20:28:23.904Z,50.97
2023-05-05T20:31:26.349Z,50.80
2023-05-05T20:34:29.104Z,51.48
2023-05-05T20:37:33.904Z,51.76
2023-05-05T20:40:37.105Z,51.55
2023-05-05T20:43:41.710Z,52.43
2023-05-05T20:46:44.478Z,52.13
2023-05-05T20:49:46.923Z,52.45
2023-05-05T20:52:49.683Z,53.55
2023-05-05T20:55:52.005Z,53.13
2023-05-05T20:58:55.045Z,52.93
2023-05-05T21:01:58.257Z,52.45
2023-05-05T21:05:05.593Z,51.76
2023-05-05T21:08:11.101Z,53.22
2023-05-05T21:11:15.204Z,52.16
2023-05-05T21:14:17.587Z,52.63
2023-05-05T21:17:20.489Z,53.76
2023-05-05T21:20:23.229Z,52.89
2023-05-05T21:23:26.189Z,52.51
2023-05-05T21:26:28.727Z,53.27
2023-05-05T21:29:37.652Z,53.71
2023-05-05T21:32:40.462Z,54.21
2023-05-05T21:35:43.526Z,53.40
2023-05-05T21:38:46.022Z,53.86
2023-05-05T21:41:48.659Z,54.17
2023-05-05T21:44:51.022Z,54.49
2023-05-05T21:47:53.719Z,53.52
2023-05-05T21:50:56.074Z,54.91
2023-05-05T21:53:58.892Z,54.84
2023-05-05T21:57:01.584Z,55.28
2023-05-05T22:00:05.981Z,54.58
2023-05-05T22:03:14.625Z,54.38
2023-05-05T22:06:17.446Z,55.00
2023-05-05T22:09:19.736Z,56.08
2023-05-05T22:12:22.509Z,55.82
2023-05-05T22:15:29.977Z,56.11
2023-05-05T22:18:36.113Z,56.09
2023-05-05T22:21:38.453Z,56.37
2023-05-05T22:24:41.582Z,56.59
2023-05-05T22:27:43.943Z,56.26
2023-05-05T22:30:46.748Z,56.25
2023-05-05T22:33:50.537Z,56.89
2023-05-05T22:36:53.121Z,56.87
2023-05-05T22:39:55.531Z,56.33
2023-05-05T22:42:58.849Z,56.51
2023-05-05T22:46:01.220Z,56.77
2023-05-05T22:49:03.889Z,56.08
2023-05-05T22:52:06.356Z,57.54
2023-05-05T22:55:09.351Z,56.83
2023-05-05T22:58:11.944Z,57.93
2023-05-05T23:01:14.576Z,57.98
2023-05-05T23:04:17.085Z,57.03
2023-05-05T23:07:19.881Z,58.52
2023-05-05T23:10:22.232Z,58.09
2023-05-05T23:13:25.064Z,57.82
2023-05-05T23:16:27.490Z,59.05
2023-05-05T23:19:32.412Z,59.26
2023-05-05T23:22:34.748Z,58.80
2023-05-05T23:25:37.420Z,59.49
2023-05-05T23:28:39.746Z,59.04
2023-05-05T23:31:42.538Z,58.91
2023-05-05T23:34:44.990Z,58.02
2023-05-05T23:37:47.683Z,58.19
2023-05-05T23:40:49.972Z,58.31
2023-05-05T23:43:52.643Z,58.18
2023-05-05T23:46:55.166Z,58.42
2023-05-05T23:49:58.153Z,58.62
2023-05-05T23:53:00.615Z,58.82
2023-05-05T23:56:03.361Z,59.16
2023-05-05T23:59:06.247Z,58.81
